createdAt,value
2022-12-19T00:00:43.456Z,96.13
2022-12-19T00:03:11.496Z,83.40
2022-12-19T00:05:40.719Z,94.57
2022-12-19T00:08:17.813Z,71.50
2022-12-19T00:10:56.350Z,87.53
2022-12-19T00:13:25.436Z,62.10
2022-12-19T00:15:53.502Z,72.30
2022-12-19T00:18:21.419Z,88.67
2022-12-19T00:20:58.388Z,83.77
2022-12-19T00:23:30.459Z,86.77
2022-12-19T00:26:10.083Z,76.13
2022-12-19T00:28:38.003Z,82.50
2022-12-19T00:31:06.371Z,98.67
2022-12-19T00:33:34.915Z,89.30
2022-12-19T00:36:10.513Z,60.83
2022-12-19T00:38:39.977Z,88.30
2022-12-19T00:41:12.552Z,98.47
2022-12-19T00:43:40.895Z,90.70
2022-12-19T00:46:12.539Z,96.43
2022-12-19T00:48:42.185Z,78.60
2022-12-19T00:51:13.563Z,86.10
2022-12-19T00:53:44.639Z,97.47
2022-12-19T00:56:17.164Z,80.90
2022-12-19T00:58:47.392Z,86.73
2022-12-19T01:01:19.699Z,70.40
2022-12-19T01:04:19.159Z,93.97
2022-12-19T01:06:36.433Z,94.40
2022-12-19T01:09:07.983Z,91.10
2022-12-19T01:11:55.766Z,89.10
2022-12-19T01:14:23.682Z,99.30
2022-12-19T01:16:52.243Z,68.90
2022-12-19T01:19:20.705Z,95.03
2022-12-19T01:21:48.751Z,108.70
2022-12-19T01:24:18.919Z,93.50
2022-12-19T01:26:51.929Z,87.17
2022-12-19T01:29:19.704Z,110.10
2022-12-19T01:31:48.877Z,91.70
2022-12-19T01:34:16.727Z,95.87
2022-12-19T01:36:44.621Z,96.30
2022-12-19T01:39:12.393Z,78.00
2022-12-19T01:41:40.250Z,91.73
2022-12-19T01:44:10.121Z,96.03
2022-12-19T01:46:43.692Z,92.67
2022-12-19T01:49:25.029Z,108.40
2022-12-19T01:51:56.826Z,94.27
2022-12-19T01:54:35.826Z,102.53
2022-12-19T01:57:11.215Z,104.53
2022-12-19T01:59:46.037Z,96.47
2022-12-19T02:02:23.086Z,81.72
2022-12-19T02:04:51.050Z,94.60
2022-12-19T02:07:24.018Z,94.80
2022-12-19T02:09:57.777Z,91.00
2022-12-19T02:12:39.977Z,101.40
2022-12-19T02:15:14.989Z,99.27
2022-12-19T02:18:08.349Z,94.50
2022-12-19T02:21:14.847Z,98.03
2022-12-19T02:24:14.308Z,98.20
2022-12-19T02:27:25.511Z,106.57
2022-12-19T02:30:12.725Z,97.70
2022-12-19T02:32:59.279Z,101.30
2022-12-19T02:35:35.292Z,108.23
2022-12-19T02:38:16.005Z,100.33
2022-12-19T02:40:55.640Z,87.30
2022-12-19T02:43:31.038Z,94.60
2022-12-19T02:46:03.668Z,82.97
2022-12-19T02:48:35.297Z,81.00
2022-12-19T02:51:05.691Z,83.87
2022-12-19T02:53:36.365Z,93.20
2022-12-19T02:56:38.134Z,89.07
2022-12-19T02:59:24.925Z,98.87
2022-12-19T03:02:04.140Z,99.97
2022-12-19T03:04:48.010Z,111.10
2022-12-19T03:07:29.250Z,99.37
2022-12-19T03:10:12.793Z,100.73
2022-12-19T03:12:53.516Z,101.25
2022-12-19T03:15:23.774Z,111.63
2022-12-19T03:17:56.903Z,96.27
2022-12-19T03:20:40.269Z,94.73
2022-12-19T03:23:08.367Z,92.50
2022-12-19T03:25:36.245Z,106.73
2022-12-19T03:28:11.874Z,100.10
2022-12-19T03:30:44.611Z,88.35
2022-12-19T03:33:17.300Z,96.17
2022-12-19T03:35:48.796Z,98.67
2022-12-19T03:38:20.693Z,93.37
2022-12-19T03:40:49.985Z,99.20
2022-12-19T03:43:22.044Z,88.97
2022-12-19T03:46:02.040Z,82.27
2022-12-19T03:48:40.969Z,68.13
2022-12-19T03:51:26.683Z,88.73
2022-12-19T03:54:01.781Z,98.18
2022-12-19T03:56:40.049Z,97.53
2022-12-19T03:59:17.055Z,107.20
2022-12-19T04:01:46.837Z,92.17
2022-12-19T04:04:16.348Z,106.87
2022-12-19T04:06:47.028Z,104.77
2022-12-19T04:09:22.554Z,101.90
2022-12-19T04:11:58.752Z,95.97
2022-12-19T04:14:31.915Z,96.87
2022-12-19T04:17:15.786Z,99.17
2022-12-19T04:19:51.119Z,94.00
2022-12-19T04:22:29.256Z,98.93
2022-12-19T04:25:00.607Z,102.77
2022-12-19T04:27:35.679Z,103.63
2022-12-19T04:30:09.688Z,99.78
2022-12-19T04:32:40.471Z,110.73
2022-12-19T04:35:09.495Z,90.37
2022-12-19T04:37:38.867Z,88.57
2022-12-19T04:40:08.920Z,90.33
2022-12-19T04:42:37.072Z,100.87
2022-12-19T04:45:07.073Z,103.33
2022-12-19T04:47:35.512Z,107.23
2022-12-19T04:50:03.697Z,116.67
2022-12-19T04:52:31.520Z,106.90
2022-12-19T04:55:00.622Z,119.83
2022-12-19T04:57:30.026Z,97.30
2022-12-19T04:59:58.286Z,105.07
2022-12-19T05:02:26.941Z,113.10
2022-12-19T05:04:55.173Z,97.57
2022-12-19T05:07:23.074Z,111.73
2022-12-19T05:09:50.863Z,105.60
2022-12-19T05:12:20.044Z,104.20
2022-12-19T05:14:48.304Z,110.63
2022-12-19T05:17:16.283Z,118.30
2022-12-19T05:19:44.108Z,113.47
2022-12-19T05:22:11.847Z,101.63
2022-12-19T05:24:39.541Z,111.23
2022-12-19T05:27:07.579Z,114.97
2022-12-19T05:29:36.617Z,118.07
2022-12-19T05:32:04.546Z,127.23
2022-12-19T05:34:32.428Z,116.70
2022-12-19T05:37:02.920Z,115.97
2022-12-19T05:39:30.741Z,102.53
2022-12-19T05:41:58.542Z,117.33
2022-12-19T05:44:27.589Z,113.00
2022-12-19T05:46:56.927Z,112.63
2022-12-19T05:49:24.773Z,114.67
2022-12-19T05:51:52.905Z,126.10
2022-12-19T05:54:20.888Z,126.00
2022-12-19T05:56:48.620Z,133.13
2022-12-19T05:59:16.498Z,132.00
2022-12-19T06:01:44.409Z,139.87
2022-12-19T06:04:13.680Z,138.80
2022-12-19T06:06:41.455Z,158.27
2022-12-19T06:09:09.212Z,164.83
2022-12-19T06:11:36.976Z,150.83
2022-12-19T06:14:08.057Z,149.70
2022-12-19T06:16:35.945Z,171.00
2022-12-19T06:19:03.969Z,156.87
2022-12-19T06:21:33.145Z,166.03
2022-12-19T06:24:01.151Z,179.17
2022-12-19T06:26:29.424Z,173.73
2022-12-19T06:28:57.298Z,157.30
2022-12-19T06:31:25.816Z,199.23
2022-12-19T06:33:55.411Z,164.63
2022-12-19T06:36:26.102Z,209.50
2022-12-19T06:39:00.159Z,168.50
2022-12-19T06:41:46.943Z,180.37
2022-12-19T06:44:17.249Z,166.43
2022-12-19T06:46:45.145Z,182.57
2022-12-19T06:49:13.132Z,183.60
2022-12-19T06:51:41.320Z,199.33
2022-12-19T06:54:11.465Z,208.43
2022-12-19T06:56:41.969Z,185.83
2022-12-19T06:59:14.392Z,203.33
2022-12-19T07:01:59.721Z,175.17
2022-12-19T07:04:32.521Z,197.80
2022-12-19T07:07:01.317Z,179.07
2022-12-19T07:09:31.719Z,169.17
2022-12-19T07:12:00.901Z,173.37
2022-12-19T07:14:28.628Z,136.63
2022-12-19T07:17:00.863Z,157.13
2022-12-19T07:19:31.367Z,143.77
2022-12-19T07:22:02.146Z,161.40
2022-12-19T07:24:32.270Z,161.03
2022-12-19T07:27:00.193Z,163.07
2022-12-19T07:29:28.080Z,124.27
2022-12-19T07:31:55.978Z,172.90
2022-12-19T07:34:23.964Z,144.23
2022-12-19T07:36:51.866Z,141.50
2022-12-19T07:39:19.687Z,141.33
2022-12-19T07:41:48.777Z,138.23
2022-12-19T07:44:28.124Z,132.93
2022-12-19T07:46:56.236Z,168.80
2022-12-19T07:49:24.358Z,155.13
2022-12-19T07:51:52.132Z,142.57
2022-12-19T07:54:19.961Z,159.00
2022-12-19T07:56:49.724Z,124.63
2022-12-19T07:59:18.125Z,129.77
2022-12-19T08:01:46.743Z,169.70
2022-12-19T08:04:14.893Z,129.47
2022-12-19T08:06:42.687Z,151.37
2022-12-19T08:09:10.447Z,172.77
2022-12-19T08:11:38.910Z,153.27
2022-12-19T08:14:08.034Z,143.00
2022-12-19T08:17:10.921Z,154.30
2022-12-19T08:19:27.813Z,123.57
2022-12-19T08:21:55.958Z,134.93
2022-12-19T08:24:24.684Z,149.37
2022-12-19T08:26:52.748Z,120.63
2022-12-19T08:29:22.871Z,133.73
2022-12-19T08:31:51.180Z,139.30
2022-12-19T08:34:19.137Z,120.20
2022-12-19T08:36:47.073Z,121.13
2022-12-19T08:39:14.952Z,104.50
2022-12-19T08:41:42.666Z,129.63
2022-12-19T08:44:13.495Z,145.20
2022-12-19T08:46:49.440Z,127.83
2022-12-19T08:49:18.782Z,140.27
2022-12-19T08:51:47.118Z,155.73
2022-12-19T08:54:15.208Z,125.07
2022-12-19T08:56:46.299Z,113.13
2022-12-19T08:59:18.716Z,103.57
2022-12-19T09:01:56.333Z,103.10
2022-12-19T09:05:13.566Z,88.33
2022-12-19T09:07:15.286Z,117.73
2022-12-19T09:09:44.083Z,91.57
2022-12-19T09:12:13.603Z,90.83
2022-12-19T09:14:41.555Z,107.97
2022-12-19T09:17:10.855Z,81.03
2022-12-19T09:19:38.637Z,82.43
2022-12-19T09:22:07.738Z,93.43
2022-12-19T09:24:35.561Z,86.97
2022-12-19T09:27:03.471Z,81.37
2022-12-19T09:29:35.362Z,81.80
2022-12-19T09:32:03.662Z,79.20
2022-12-19T09:34:38.317Z,65.57
2022-12-19T09:37:08.379Z,75.35
2022-12-19T09:39:36.604Z,76.63
2022-12-19T09:42:27.666Z,73.93
2022-12-19T09:45:19.505Z,66.80
2022-12-19T09:48:01.859Z,74.23
2022-12-19T09:50:47.897Z,71.33
2022-12-19T09:53:25.628Z,62.63
2022-12-19T09:55:54.812Z,68.37
2022-12-19T09:58:41.006Z,70.73
2022-12-19T10:01:20.358Z,66.23
2022-12-19T10:04:00.991Z,60.00
2022-12-19T10:07:15.901Z,57.70
2022-12-19T10:11:18.591Z,61.97
2022-12-19T10:12:53.004Z,67.30
2022-12-19T10:15:35.774Z,72.03
2022-12-19T10:18:31.805Z,63.50
2022-12-19T10:21:07.608Z,61.22
2022-12-19T10:26:39.915Z,56.30
2022-12-19T10:29:34.090Z,61.60
2022-12-19T10:32:13.890Z,58.13
2022-12-19T10:34:44.758Z,60.07
2022-12-19T10:37:25.351Z,63.63
2022-12-19T10:40:20.018Z,52.20
2022-12-19T10:43:09.376Z,58.30
2022-12-19T10:45:47.052Z,51.97
2022-12-19T10:48:19.718Z,55.53
2022-12-19T10:50:50.734Z,54.95
2022-12-19T10:53:28.779Z,51.43
2022-12-19T10:56:13.018Z,47.97
2022-12-19T10:58:44.387Z,48.07
2022-12-19T11:01:17.630Z,51.60
2022-12-19T11:03:54.564Z,55.97
2022-12-19T11:06:57.083Z,43.43
2022-12-19T11:09:29.255Z,51.17
2022-12-19T11:15:38.004Z,47.60
2022-12-19T11:19:42.376Z,46.93
2022-12-19T11:23:31.368Z,47.23
2022-12-19T11:30:05.066Z,54.10
2022-12-19T11:30:41.365Z,48.07
2022-12-19T11:30:47.997Z,51.03
2022-12-19T11:32:41.551Z,40.63
2022-12-19T11:35:19.921Z,39.43
2022-12-19T11:37:55.864Z,40.77
2022-12-19T11:40:34.076Z,43.60
2022-12-19T11:46:16.231Z,46.60
2022-12-19T11:48:53.712Z,48.57
2022-12-19T11:51:32.319Z,57.83
2022-12-19T11:54:13.904Z,47.70
2022-12-19T11:56:41.921Z,44.47
2022-12-19T11:59:18.308Z,46.53
2022-12-19T12:02:09.758Z,48.30
2022-12-19T12:05:08.624Z,44.30
2022-12-19T12:08:37.099Z,36.37
2022-12-19T12:15:23.545Z,41.33
2022-12-19T12:20:55.070Z,38.17
2022-12-19T12:29:35.381Z,35.30
2022-12-19T12:31:13.627Z,35.07
2022-12-19T12:31:41.877Z,32.03
2022-12-19T12:32:00.733Z,34.83
2022-12-19T12:32:03.001Z,31.37
2022-12-19T12:35:50.036Z,31.67
2022-12-19T12:38:43.277Z,34.10
2022-12-19T12:41:46.269Z,37.95
2022-12-19T12:44:15.524Z,34.00
2022-12-19T12:46:49.293Z,32.87
2022-12-19T12:49:35.966Z,37.03
2022-12-19T12:52:12.893Z,32.50
2022-12-19T12:54:45.354Z,37.60
2022-12-19T12:57:33.890Z,37.07
2022-12-19T13:00:24.695Z,39.87
2022-12-19T13:03:02.560Z,36.93
2022-12-19T13:05:53.385Z,37.57
2022-12-19T13:08:34.314Z,35.63
2022-12-19T13:11:06.780Z,31.87
2022-12-19T13:13:53.697Z,32.63
2022-12-19T13:16:54.276Z,35.30
2022-12-19T13:19:28.884Z,31.10
2022-12-19T13:22:23.079Z,32.45
2022-12-19T13:24:54.746Z,27.00
2022-12-19T13:27:39.220Z,25.33
2022-12-19T13:30:20.169Z,26.33
2022-12-19T13:33:10.095Z,24.70
2022-12-19T13:37:05.286Z,27.53
2022-12-19T13:39:58.052Z,23.63
2022-12-19T13:41:58.310Z,22.40
2022-12-19T13:44:27.635Z,22.73
2022-12-19T13:46:56.569Z,22.40
2022-12-19T13:49:34.768Z,20.77
2022-12-19T13:52:06.888Z,22.40
2022-12-19T13:54:46.734Z,24.17
2022-12-19T13:57:24.802Z,23.53
2022-12-19T14:00:00.031Z,23.17
2022-12-19T14:02:44.080Z,24.13
2022-12-19T14:05:34.065Z,25.93
2022-12-19T14:08:21.473Z,27.30
2022-12-19T14:11:29.020Z,23.87
2022-12-19T14:14:16.535Z,20.17
2022-12-19T14:16:48.504Z,23.40
2022-12-19T14:19:21.794Z,21.73
2022-12-19T14:22:11.804Z,19.40
2022-12-19T14:24:53.078Z,16.93
2022-12-19T14:28:24.935Z,16.93
2022-12-19T14:30:30.060Z,19.83
2022-12-19T14:33:45.357Z,17.60
2022-12-19T14:36:08.442Z,16.27
2022-12-19T14:39:24.217Z,16.23
2022-12-19T14:42:03.000Z,19.10
2022-12-19T14:52:26.128Z,17.03
2022-12-19T14:54:05.507Z,15.97
2022-12-19T14:54:06.895Z,14.63
2022-12-19T14:55:08.281Z,16.93
2022-12-19T14:57:00.310Z,15.53
2022-12-19T14:59:35.430Z,14.07
2022-12-19T15:02:28.167Z,15.53
2022-12-19T15:05:07.607Z,14.97
2022-12-19T15:07:40.991Z,14.77
2022-12-19T15:11:10.902Z,13.73
2022-12-19T15:16:26.747Z,17.00
2022-12-19T15:18:58.545Z,13.77
2022-12-19T15:21:29.832Z,14.93
2022-12-19T15:23:58.071Z,14.60
2022-12-19T15:26:33.209Z,15.57
2022-12-19T15:29:02.893Z,13.90
2022-12-19T15:31:36.048Z,13.47
2022-12-19T15:34:35.025Z,14.80
2022-12-19T15:37:05.047Z,14.67
2022-12-19T15:39:32.880Z,14.10
2022-12-19T15:42:02.905Z,14.20
2022-12-19T15:44:37.828Z,15.47
2022-12-19T15:47:15.660Z,15.75
2022-12-19T15:49:43.617Z,13.53
2022-12-19T15:52:17.314Z,13.90
2022-12-19T15:54:50.075Z,14.70
2022-12-19T15:57:32.494Z,17.60
2022-12-19T16:00:09.015Z,14.17
2022-12-19T16:03:21.052Z,14.67
2022-12-19T16:05:29.505Z,12.87
2022-12-19T16:07:58.822Z,15.40
2022-12-19T16:10:29.472Z,15.50
2022-12-19T16:12:58.845Z,12.87
2022-12-19T16:15:33.696Z,13.40
2022-12-19T16:18:03.789Z,14.67
2022-12-19T16:20:39.330Z,12.20
2022-12-19T16:23:08.204Z,14.65
2022-12-19T16:25:41.212Z,12.83
2022-12-19T16:28:18.349Z,13.17
2022-12-19T16:30:47.396Z,13.13
2022-12-19T16:33:22.144Z,12.93
2022-12-19T16:36:07.650Z,11.65
2022-12-19T16:38:36.548Z,10.88
2022-12-19T16:41:04.618Z,12.97
2022-12-19T16:43:38.502Z,10.80
2022-12-19T16:46:08.595Z,11.20
2022-12-19T16:48:36.455Z,10.27
2022-12-19T16:51:04.828Z,11.53
2022-12-19T16:53:33.171Z,10.30
2022-12-19T16:56:02.437Z,12.10
2022-12-19T16:58:30.311Z,12.33
2022-12-19T17:00:59.602Z,11.90
2022-12-19T17:03:37.123Z,12.37
2022-12-19T17:06:05.039Z,11.63
2022-12-19T17:08:33.005Z,11.10
2022-12-19T17:11:00.794Z,11.80
2022-12-19T17:13:28.897Z,12.37
2022-12-19T17:16:55.354Z,11.43
2022-12-19T17:23:15.722Z,12.50
2022-12-19T17:25:44.714Z,11.97
2022-12-19T17:28:13.003Z,12.77
2022-12-19T17:30:43.958Z,11.57
2022-12-19T17:37:04.415Z,11.93
2022-12-19T17:39:34.523Z,11.37
2022-12-19T17:42:16.402Z,11.33
2022-12-19T17:44:44.280Z,11.33
2022-12-19T17:47:14.906Z,14.13
2022-12-19T17:49:43.431Z,11.13
2022-12-19T17:52:16.329Z,12.47
2022-12-19T17:54:44.367Z,11.93
2022-12-19T17:57:14.359Z,12.10
2022-12-19T17:59:42.616Z,11.73
2022-12-19T18:02:21.241Z,14.30
2022-12-19T18:04:50.679Z,13.33
2022-12-19T18:07:19.831Z,12.23
2022-12-19T18:09:47.769Z,10.93
2022-12-19T18:12:15.720Z,10.50
2022-12-19T18:14:43.688Z,12.20
2022-12-19T18:17:13.670Z,10.93
2022-12-19T18:19:41.741Z,9.83
2022-12-19T18:22:12.664Z,9.93
2022-12-19T18:24:45.518Z,10.80
2022-12-19T18:27:14.473Z,11.17
2022-12-19T18:29:42.884Z,9.87
2022-12-19T18:32:19.062Z,8.60
2022-12-19T18:34:47.129Z,9.63
2022-12-19T18:37:15.833Z,10.07
2022-12-19T18:39:44.877Z,7.97
2022-12-19T18:42:20.647Z,9.50
2022-12-19T18:44:48.605Z,9.43
2022-12-19T18:47:22.120Z,10.17
2022-12-19T18:49:51.854Z,9.03
2022-12-19T18:52:19.649Z,9.90
2022-12-19T18:54:48.917Z,9.20
2022-12-19T18:57:16.660Z,9.27
2022-12-19T18:59:44.424Z,7.90
2022-12-19T19:02:26.244Z,8.53
2022-12-19T19:04:55.691Z,8.73
2022-12-19T19:07:23.463Z,7.60
2022-12-19T19:09:52.602Z,8.77
2022-12-19T19:12:36.411Z,8.57
2022-12-19T19:15:05.534Z,10.03
2022-12-19T19:17:33.474Z,6.80
2022-12-19T19:20:02.625Z,7.10
2022-12-19T19:22:30.744Z,8.97
2022-12-19T19:24:59.864Z,8.23
2022-12-19T19:27:27.872Z,7.97
2022-12-19T19:29:55.626Z,7.60
2022-12-19T19:32:25.322Z,8.10
2022-12-19T19:34:55.503Z,7.77
2022-12-19T19:37:23.644Z,8.47
2022-12-19T19:39:51.457Z,8.17
2022-12-19T19:42:20.499Z,9.17
2022-12-19T19:44:48.263Z,7.30
2022-12-19T19:47:16.082Z,8.43
2022-12-19T19:49:44.043Z,8.87
2022-12-19T19:52:11.820Z,7.30
2022-12-19T19:54:39.674Z,7.50
2022-12-19T19:57:08.271Z,8.73
2022-12-19T19:59:38.013Z,9.47
2022-12-19T20:02:05.925Z,7.73
2022-12-19T20:04:34.445Z,8.03
2022-12-19T20:07:02.906Z,10.57
2022-12-19T20:09:31.302Z,8.53
2022-12-19T20:11:59.687Z,7.83
2022-12-19T20:14:27.774Z,8.43
2022-12-19T20:16:56.895Z,8.27
2022-12-19T20:19:25.041Z,7.13
2022-12-19T20:21:53.064Z,5.93
2022-12-19T20:24:20.913Z,7.70
2022-12-19T20:26:48.649Z,8.10
2022-12-19T20:29:16.592Z,7.60
2022-12-19T20:31:44.690Z,8.10
2022-12-19T20:34:13.764Z,6.97
2022-12-19T20:36:41.762Z,7.90
2022-12-19T20:39:09.874Z,8.77
2022-12-19T20:41:38.030Z,6.93
2022-12-19T20:44:05.879Z,6.07
2022-12-19T20:46:33.763Z,5.97
2022-12-19T20:49:01.632Z,9.40
2022-12-19T20:51:30.867Z,7.13
2022-12-19T20:53:58.713Z,6.60
2022-12-19T20:56:26.650Z,7.10
2022-12-19T20:58:54.803Z,6.43
2022-12-19T21:01:25.380Z,8.20
2022-12-19T21:03:53.705Z,7.90
2022-12-19T21:06:26.071Z,9.07
2022-12-19T21:08:56.975Z,9.43
2022-12-19T21:11:26.437Z,6.57
2022-12-19T21:13:54.522Z,6.67
2022-12-19T21:16:23.560Z,7.60
2022-12-19T21:18:52.029Z,6.43
2022-12-19T21:21:23.331Z,6.53
2022-12-19T21:23:51.933Z,6.33
2022-12-19T21:26:23.472Z,6.87
2022-12-19T21:28:52.544Z,7.43
2022-12-19T21:31:24.978Z,8.20
2022-12-19T21:33:55.386Z,6.13
2022-12-19T21:36:25.701Z,6.87
2022-12-19T21:38:57.089Z,6.93
2022-12-19T21:41:26.303Z,6.37
2022-12-19T21:43:56.383Z,6.83
2022-12-19T21:46:28.051Z,6.37
2022-12-19T21:48:57.717Z,6.77
2022-12-19T21:51:29.430Z,6.50
2022-12-19T21:54:00.833Z,6.57
2022-12-19T21:56:34.089Z,6.50
2022-12-19T21:59:05.051Z,5.87
2022-12-19T22:01:34.128Z,5.93
2022-12-19T22:04:06.577Z,7.23
2022-12-19T22:06:37.853Z,6.53
2022-12-19T22:09:11.951Z,7.87
2022-12-19T22:11:42.096Z,9.37
2022-12-19T22:14:12.698Z,6.77
2022-12-19T22:16:40.672Z,6.57
2022-12-19T22:19:10.805Z,7.87
2022-12-19T22:21:38.967Z,8.27
2022-12-19T22:24:10.633Z,8.07
2022-12-19T22:26:38.836Z,6.40
2022-12-19T22:29:11.505Z,8.20
2022-12-19T22:31:39.959Z,7.63
2022-12-19T22:34:12.192Z,9.33
2022-12-19T22:36:42.221Z,7.40
2022-12-19T22:39:14.003Z,8.77
2022-12-19T22:41:42.759Z,7.53
2022-12-19T22:44:18.456Z,9.00
2022-12-19T22:46:49.479Z,8.67
2022-12-19T22:49:17.807Z,7.57
2022-12-19T22:51:45.993Z,7.13
2022-12-19T22:54:14.078Z,7.13
2022-12-19T22:56:42.381Z,8.43
2022-12-19T22:59:13.232Z,10.60
2022-12-19T23:01:43.586Z,5.90
2022-12-19T23:04:15.002Z,7.50
2022-12-19T23:06:44.187Z,7.70
2022-12-19T23:09:17.963Z,7.60
2022-12-19T23:11:48.671Z,8.07
2022-12-19T23:14:20.405Z,7.43
2022-12-19T23:16:49.150Z,6.33
2022-12-19T23:19:18.373Z,6.90
2022-12-19T23:21:46.533Z,7.60
2022-12-19T23:24:14.992Z,7.60
2022-12-19T23:26:42.894Z,7.33
2022-12-19T23:29:13.768Z,6.77
2022-12-19T23:31:46.643Z,6.63
2022-12-19T23:34:15.573Z,7.97
2022-12-19T23:37:10.217Z,6.87
2022-12-19T23:39:31.063Z,7.57
2022-12-19T23:41:58.784Z,7.67
2022-12-19T23:44:27.409Z,6.40
2022-12-19T23:47:03.021Z,8.53
2022-12-19T23:49:32.723Z,10.63
2022-12-19T23:52:00.672Z,7.73
2022-12-19T23:54:28.563Z,6.13
2022-12-19T23:56:56.894Z,7.80
2022-12-19T23:59:24.763Z,6.37
